createdAt,value
2022-12-18T00:02:01.408Z,60.40
2022-12-18T00:04:30.219Z,60.50
2022-12-18T00:06:58.436Z,60.70
2022-12-18T00:09:31.373Z,60.60
2022-12-18T00:14:46.875Z,60.90
2022-12-18T00:17:16.408Z,60.80
2022-12-18T00:19:44.548Z,60.50
2022-12-18T00:22:12.682Z,60.40
2022-12-18T00:24:40.832Z,60.30
2022-12-18T00:27:09.398Z,60.30
2022-12-18T00:29:37.549Z,60.30
2022-12-18T00:32:05.810Z,60.40
2022-12-18T00:34:35.411Z,60.40
2022-12-18T00:37:03.551Z,60.40
2022-12-18T00:39:31.766Z,60.40
2022-12-18T00:42:17.223Z,60.40
2022-12-18T00:44:45.380Z,60.50
2022-12-18T00:47:13.546Z,60.70
2022-12-18T00:49:43.115Z,60.70
2022-12-18T00:52:11.263Z,60.80
2022-12-18T00:54:39.432Z,60.80
2022-12-18T00:57:07.569Z,60.80
2022-12-18T00:59:35.735Z,60.70
2022-12-18T01:02:04.114Z,60.70
2022-12-18T01:04:34.211Z,60.70
2022-12-18T01:07:03.729Z,60.60
2022-12-18T01:09:33.250Z,60.80
2022-12-18T01:12:01.415Z,60.80
2022-12-18T01:14:30.756Z,60.70
2022-12-18T01:16:59.023Z,60.60
2022-12-18T01:19:27.231Z,60.40
2022-12-18T01:21:55.359Z,60.20
2022-12-18T01:24:25.066Z,60.20
2022-12-18T01:26:53.254Z,60.20
2022-12-18T01:29:21.422Z,60.10
2022-12-18T01:31:49.593Z,60.00
2022-12-18T01:34:17.944Z,60.00
2022-12-18T01:36:46.116Z,59.80
2022-12-18T01:39:15.675Z,59.70
2022-12-18T01:42:02.463Z,59.50
2022-12-18T01:44:55.925Z,59.50
2022-12-18T01:47:28.134Z,59.40
2022-12-18T01:49:58.200Z,59.50
2022-12-18T01:52:27.975Z,59.50
2022-12-18T01:54:57.816Z,59.30
2022-12-18T01:57:28.358Z,59.20
2022-12-18T02:00:01.154Z,59.10
2022-12-18T02:02:30.838Z,59.00
2022-12-18T02:04:59.113Z,58.80
2022-12-18T02:07:37.107Z,58.80
2022-12-18T02:10:10.384Z,58.70
2022-12-18T02:12:47.413Z,58.60
2022-12-18T02:15:21.275Z,58.60
2022-12-18T02:17:56.653Z,58.50
2022-12-18T02:20:30.211Z,58.50
2022-12-18T02:23:17.430Z,58.40
2022-12-18T02:26:19.079Z,58.20
2022-12-18T02:28:51.440Z,58.10
2022-12-18T02:31:23.232Z,58.30
2022-12-18T02:33:52.101Z,58.40
2022-12-18T02:36:23.485Z,58.70
2022-12-18T02:38:54.016Z,58.70
2022-12-18T02:41:27.267Z,58.60
2022-12-18T02:43:58.644Z,58.50
2022-12-18T02:46:33.059Z,58.50
2022-12-18T02:49:17.119Z,58.50
2022-12-18T02:51:53.228Z,58.50
2022-12-18T02:54:34.063Z,58.50
2022-12-18T02:57:13.660Z,58.40
2022-12-18T02:59:47.856Z,58.40
2022-12-18T03:02:23.300Z,58.30
2022-12-18T03:04:58.715Z,58.20
2022-12-18T03:07:36.466Z,58.10
2022-12-18T03:10:06.932Z,58.10
2022-12-18T03:12:40.270Z,58.00
2022-12-18T03:15:17.446Z,58.00
2022-12-18T03:17:54.669Z,58.00
2022-12-18T03:20:25.585Z,58.20
2022-12-18T03:22:57.518Z,58.20
2022-12-18T03:25:27.818Z,58.70
2022-12-18T03:28:00.839Z,58.30
2022-12-18T03:30:33.803Z,58.50
2022-12-18T03:33:07.310Z,58.60
2022-12-18T03:35:39.805Z,58.80
2022-12-18T03:38:08.130Z,59.00
2022-12-18T03:40:47.126Z,59.00
2022-12-18T03:43:23.013Z,59.00
2022-12-18T03:45:56.115Z,58.90
2022-12-18T03:48:31.725Z,58.90
2022-12-18T03:51:03.751Z,58.90
2022-12-18T03:53:40.383Z,58.80
2022-12-18T03:56:10.905Z,58.60
2022-12-18T03:58:42.241Z,58.50
2022-12-18T04:01:14.438Z,58.40
2022-12-18T04:03:45.598Z,58.40
2022-12-18T04:06:14.919Z,58.40
2022-12-18T04:08:43.697Z,58.40
2022-12-18T04:11:11.944Z,58.30
2022-12-18T04:13:42.298Z,58.20
2022-12-18T04:16:11.455Z,58.20
2022-12-18T04:18:39.647Z,58.10
2022-12-18T04:21:07.820Z,58.00
2022-12-18T04:23:36.016Z,57.90
2022-12-18T04:26:04.202Z,57.80
2022-12-18T04:28:32.338Z,57.90
2022-12-18T04:31:02.038Z,57.80
2022-12-18T04:33:30.236Z,57.70
2022-12-18T04:35:58.928Z,57.70
2022-12-18T04:38:27.069Z,57.70
2022-12-18T04:40:55.246Z,57.60
2022-12-18T04:43:23.536Z,58.30
2022-12-18T04:45:51.772Z,57.90
2022-12-18T04:48:21.315Z,57.90
2022-12-18T04:50:50.308Z,57.70
2022-12-18T04:53:18.496Z,57.70
2022-12-18T04:55:46.645Z,57.80
2022-12-18T04:58:14.798Z,57.80
2022-12-18T05:00:42.978Z,57.80
2022-12-18T05:03:11.157Z,57.90
2022-12-18T05:05:40.687Z,57.80
2022-12-18T05:08:08.838Z,57.60
2022-12-18T05:10:38.454Z,57.60
2022-12-18T05:13:06.772Z,57.50
2022-12-18T05:15:35.476Z,57.60
2022-12-18T05:18:04.708Z,57.60
2022-12-18T05:20:33.527Z,57.70
2022-12-18T05:23:03.062Z,57.60
2022-12-18T05:25:31.268Z,57.40
2022-12-18T05:27:59.506Z,57.40
2022-12-18T05:30:28.579Z,57.30
2022-12-18T05:32:56.855Z,57.40
2022-12-18T05:35:25.063Z,57.50
2022-12-18T05:37:53.246Z,57.70
2022-12-18T05:40:22.811Z,57.70
2022-12-18T05:42:50.980Z,57.70
2022-12-18T05:45:19.307Z,57.70
2022-12-18T05:47:47.464Z,57.80
2022-12-18T05:50:15.634Z,57.80
2022-12-18T05:52:43.787Z,57.90
2022-12-18T05:55:12.122Z,57.80
2022-12-18T05:57:41.683Z,57.80
2022-12-18T06:00:11.408Z,57.90
2022-12-18T06:02:39.599Z,57.90
2022-12-18T06:05:08.475Z,57.80
2022-12-18T06:07:36.636Z,57.70
2022-12-18T06:10:05.204Z,57.60
2022-12-18T06:12:34.487Z,57.50
2022-12-18T06:15:04.493Z,57.40
2022-12-18T06:17:33.235Z,57.40
2022-12-18T06:20:02.111Z,57.50
2022-12-18T06:22:30.372Z,57.50
2022-12-18T06:24:58.559Z,58.10
2022-12-18T06:27:26.948Z,57.60
2022-12-18T06:29:55.065Z,57.70
2022-12-18T06:32:24.763Z,57.70
2022-12-18T06:34:52.968Z,57.70
2022-12-18T06:37:21.212Z,57.60
2022-12-18T06:39:49.399Z,57.50
2022-12-18T06:42:17.563Z,57.30
2022-12-18T06:44:45.776Z,57.30
2022-12-18T06:47:13.917Z,57.30
2022-12-18T06:49:43.423Z,57.40
2022-12-18T06:52:11.535Z,57.50
2022-12-18T06:54:39.706Z,57.50
2022-12-18T06:57:07.860Z,57.70
2022-12-18T06:59:36.308Z,57.50
2022-12-18T07:02:04.525Z,57.60
2022-12-18T07:04:33.468Z,57.50
2022-12-18T07:07:02.995Z,57.40
2022-12-18T07:09:31.171Z,57.30
2022-12-18T07:11:59.296Z,57.30
2022-12-18T07:14:27.643Z,57.20
2022-12-18T07:16:55.960Z,57.20
2022-12-18T07:19:24.272Z,57.20
2022-12-18T07:21:52.730Z,57.20
2022-12-18T07:24:22.386Z,57.20
2022-12-18T07:26:50.599Z,57.20
2022-12-18T07:29:18.771Z,57.30
2022-12-18T07:31:47.059Z,57.30
2022-12-18T07:34:16.335Z,57.40
2022-12-18T07:36:44.907Z,57.40
2022-12-18T07:39:13.935Z,57.40
2022-12-18T07:41:47.541Z,57.40
2022-12-18T07:44:15.979Z,57.50
2022-12-18T07:46:44.114Z,57.50
2022-12-18T07:49:12.252Z,57.50
2022-12-18T07:51:40.398Z,57.50
2022-12-18T07:54:08.533Z,57.60
2022-12-18T07:56:36.664Z,57.80
2022-12-18T07:59:06.196Z,58.00
2022-12-18T08:01:35.267Z,58.00
2022-12-18T08:04:03.491Z,58.10
2022-12-18T08:06:31.829Z,58.00
2022-12-18T08:09:00.059Z,58.00
2022-12-18T08:11:29.869Z,58.20
2022-12-18T08:13:58.791Z,58.30
2022-12-18T08:16:28.516Z,58.20
2022-12-18T08:18:57.064Z,58.20
2022-12-18T08:21:27.322Z,58.20
2022-12-18T08:23:57.066Z,58.30
2022-12-18T08:26:25.913Z,58.30
2022-12-18T08:28:55.754Z,58.40
2022-12-18T08:31:24.577Z,58.40
2022-12-18T08:33:55.358Z,58.40
2022-12-18T08:36:24.575Z,58.50
2022-12-18T08:38:53.845Z,58.60
2022-12-18T08:41:23.036Z,58.70
2022-12-18T08:44:08.707Z,58.80
2022-12-18T08:46:38.940Z,59.00
2022-12-18T08:49:09.481Z,59.20
2022-12-18T08:51:38.136Z,59.40
2022-12-18T08:54:07.486Z,59.60
2022-12-18T08:56:35.991Z,59.80
2022-12-18T08:59:05.290Z,59.90
2022-12-18T09:01:33.882Z,60.10
2022-12-18T09:04:03.996Z,60.30
2022-12-18T09:06:34.385Z,60.50
2022-12-18T09:09:02.592Z,60.60
2022-12-18T09:11:32.289Z,60.70
2022-12-18T09:14:01.906Z,60.80
2022-12-18T09:16:32.639Z,61.80
2022-12-18T09:19:01.697Z,61.20
2022-12-18T09:21:33.468Z,61.30
2022-12-18T09:24:08.663Z,61.50
2022-12-18T09:26:37.258Z,61.60
2022-12-18T09:29:05.622Z,61.60
2022-12-18T09:31:33.790Z,61.70
2022-12-18T09:34:02.077Z,61.70
2022-12-18T09:36:30.264Z,61.90
2022-12-18T09:38:58.748Z,62.10
2022-12-18T09:41:47.912Z,62.30
2022-12-18T09:44:22.299Z,62.50
2022-12-18T09:46:56.778Z,62.50
2022-12-18T09:49:28.753Z,62.60
2022-12-18T09:52:01.625Z,62.70
2022-12-18T09:54:35.784Z,62.90
2022-12-18T09:57:06.116Z,63.10
2022-12-18T09:59:38.140Z,63.20
2022-12-18T10:02:16.789Z,63.40
2022-12-18T10:04:45.688Z,63.50
2022-12-18T10:07:20.022Z,63.40
2022-12-18T10:09:55.887Z,63.50
2022-12-18T10:12:34.840Z,63.50
2022-12-18T10:15:09.547Z,63.40
2022-12-18T10:17:43.863Z,63.40
2022-12-18T10:20:18.143Z,63.50
2022-12-18T10:22:55.480Z,63.60
2022-12-18T10:25:27.451Z,64.00
2022-12-18T10:28:01.278Z,64.10
2022-12-18T10:30:29.687Z,64.20
2022-12-18T10:33:03.051Z,64.20
2022-12-18T10:35:31.366Z,64.50
2022-12-18T10:38:05.759Z,64.50
2022-12-18T10:40:34.676Z,64.60
2022-12-18T10:43:12.978Z,64.70
2022-12-18T10:45:41.549Z,64.90
2022-12-18T10:48:21.691Z,64.80
2022-12-18T10:53:44.487Z,64.80
2022-12-18T10:56:12.769Z,64.80
2022-12-18T10:58:42.640Z,64.50
2022-12-18T11:01:13.456Z,64.40
2022-12-18T11:03:44.272Z,64.30
2022-12-18T11:06:14.479Z,64.40
2022-12-18T11:08:44.844Z,64.30
2022-12-18T11:11:21.312Z,64.40
2022-12-18T11:14:01.414Z,64.50
2022-12-18T11:16:31.896Z,67.40
2022-12-18T11:19:21.985Z,70.10
2022-12-18T11:21:51.006Z,70.50
2022-12-18T11:24:27.199Z,68.50
2022-12-18T11:26:59.632Z,66.10
2022-12-18T11:29:34.838Z,63.50
2022-12-18T11:32:29.369Z,60.20
2022-12-18T11:35:03.257Z,58.20
2022-12-18T11:37:33.489Z,57.50
2022-12-18T11:40:09.127Z,57.20
2022-12-18T11:42:44.431Z,57.10
2022-12-18T11:45:29.511Z,57.20
2022-12-18T11:48:06.720Z,57.40
2022-12-18T11:50:45.619Z,57.70
2022-12-18T11:53:15.027Z,58.00
2022-12-18T11:55:51.976Z,58.30
2022-12-18T11:58:36.220Z,58.60
2022-12-18T12:01:16.095Z,58.90
2022-12-18T12:04:07.894Z,59.10
2022-12-18T12:06:43.064Z,59.40
2022-12-18T12:09:22.154Z,59.70
2022-12-18T12:12:04.036Z,59.80
2022-12-18T12:14:48.977Z,60.00
2022-12-18T12:17:31.296Z,60.20
2022-12-18T12:20:06.511Z,60.40
2022-12-18T12:22:46.017Z,60.60
2022-12-18T12:25:29.204Z,60.70
2022-12-18T12:28:07.211Z,60.80
2022-12-18T12:30:42.887Z,60.90
2022-12-18T12:33:25.374Z,61.20
2022-12-18T12:36:01.711Z,61.60
2022-12-18T12:38:33.226Z,61.90
2022-12-18T12:41:04.633Z,62.00
2022-12-18T12:43:42.202Z,62.10
2022-12-18T12:46:18.324Z,62.00
2022-12-18T12:48:51.431Z,62.00
2022-12-18T12:51:23.246Z,62.10
2022-12-18T12:53:51.588Z,62.10
2022-12-18T12:56:22.253Z,62.10
2022-12-18T12:59:02.011Z,62.10
2022-12-18T13:01:38.009Z,62.20
2022-12-18T13:04:21.585Z,62.50
2022-12-18T13:06:56.518Z,62.70
2022-12-18T13:09:25.003Z,62.50
2022-12-18T13:12:10.715Z,62.40
2022-12-18T13:14:40.649Z,62.50
2022-12-18T13:17:32.038Z,62.60
2022-12-18T13:20:13.301Z,63.00
2022-12-18T13:22:48.843Z,63.10
2022-12-18T13:25:31.715Z,63.20
2022-12-18T13:28:05.064Z,63.30
2022-12-18T13:30:48.448Z,63.20
2022-12-18T13:34:16.557Z,63.10
2022-12-18T13:36:36.401Z,62.90
2022-12-18T13:39:28.904Z,62.90
2022-12-18T13:42:57.785Z,63.00
2022-12-18T13:45:50.077Z,62.90
2022-12-18T13:48:24.419Z,63.80
2022-12-18T13:50:58.666Z,63.20
2022-12-18T13:53:32.580Z,63.40
2022-12-18T13:56:01.249Z,63.60
2022-12-18T13:58:29.485Z,63.70
2022-12-18T14:01:00.236Z,63.70
2022-12-18T14:03:31.465Z,63.80
2022-12-18T14:06:07.548Z,63.80
2022-12-18T14:08:41.647Z,63.70
2022-12-18T14:11:22.300Z,63.70
2022-12-18T14:13:51.596Z,63.70
2022-12-18T14:16:20.141Z,63.60
2022-12-18T14:18:51.111Z,63.50
2022-12-18T14:21:24.260Z,63.60
2022-12-18T14:24:06.224Z,63.60
2022-12-18T14:26:34.521Z,63.70
2022-12-18T14:29:19.556Z,63.70
2022-12-18T14:32:05.872Z,63.60
2022-12-18T14:34:34.110Z,63.60
2022-12-18T14:37:02.336Z,63.60
2022-12-18T14:39:31.956Z,63.50
2022-12-18T14:42:00.151Z,63.50
2022-12-18T14:44:34.516Z,63.60
2022-12-18T14:47:07.376Z,63.70
2022-12-18T14:49:37.800Z,63.70
2022-12-18T14:52:07.794Z,63.80
2022-12-18T14:54:39.605Z,63.90
2022-12-18T14:57:23.316Z,64.00
2022-12-18T14:59:52.138Z,64.00
2022-12-18T15:02:24.027Z,63.90
2022-12-18T15:05:02.446Z,63.80
2022-12-18T15:07:42.955Z,63.90
2022-12-18T15:10:16.639Z,63.70
2022-12-18T15:12:46.420Z,63.70
2022-12-18T15:15:54.099Z,63.60
2022-12-18T15:18:24.512Z,63.60
2022-12-18T15:20:55.885Z,63.50
2022-12-18T15:23:25.868Z,63.60
2022-12-18T15:26:01.756Z,63.60
2022-12-18T15:28:34.348Z,63.60
2022-12-18T15:31:05.188Z,63.70
2022-12-18T15:33:36.563Z,63.70
2022-12-18T15:36:10.964Z,63.70
2022-12-18T15:38:39.247Z,63.70
2022-12-18T15:41:17.852Z,63.80
2022-12-18T15:43:50.203Z,63.90
2022-12-18T15:46:20.759Z,64.00
2022-12-18T15:48:50.783Z,64.00
2022-12-18T15:51:22.353Z,64.80
2022-12-18T15:53:52.335Z,64.20
2022-12-18T15:56:39.462Z,64.20
2022-12-18T15:59:13.109Z,64.30
2022-12-18T16:01:42.760Z,64.30
2022-12-18T16:04:13.914Z,64.30
2022-12-18T16:07:12.828Z,64.30
2022-12-18T16:09:30.729Z,64.30
2022-12-18T16:12:00.411Z,64.30
2022-12-18T16:14:30.656Z,64.30
2022-12-18T16:17:00.545Z,64.30
2022-12-18T16:19:29.785Z,64.20
2022-12-18T16:21:59.388Z,64.30
2022-12-18T16:24:29.618Z,64.30
2022-12-18T16:27:00.853Z,64.40
2022-12-18T16:29:30.866Z,64.40
2022-12-18T16:32:00.653Z,64.40
2022-12-18T16:34:32.141Z,64.50
2022-12-18T16:37:06.449Z,64.50
2022-12-18T16:39:35.467Z,64.50
2022-12-18T16:42:06.963Z,64.70
2022-12-18T16:44:35.241Z,64.70
2022-12-18T16:47:04.371Z,64.70
2022-12-18T16:49:33.422Z,64.80
2022-12-18T16:52:01.568Z,64.80
2022-12-18T16:54:30.484Z,64.90
2022-12-18T16:56:58.987Z,65.00
2022-12-18T16:59:29.259Z,65.60
2022-12-18T17:01:58.446Z,64.90
2022-12-18T17:04:26.755Z,64.90
2022-12-18T17:06:54.936Z,64.90
2022-12-18T17:09:25.543Z,64.90
2022-12-18T17:11:53.976Z,65.00
2022-12-18T17:14:24.596Z,65.00
2022-12-18T17:17:19.784Z,65.10
2022-12-18T17:19:42.932Z,65.20
2022-12-18T17:22:11.111Z,65.10
2022-12-18T17:24:39.244Z,65.10
2022-12-18T17:27:08.605Z,65.10
2022-12-18T17:29:39.969Z,65.10
2022-12-18T17:32:13.320Z,65.20
2022-12-18T17:34:41.659Z,65.10
2022-12-18T17:37:10.145Z,67.70
2022-12-18T17:39:38.751Z,73.40
2022-12-18T17:42:07.704Z,73.20
2022-12-18T17:44:37.702Z,70.80
2022-12-18T17:47:06.171Z,68.80
2022-12-18T17:49:35.868Z,66.40
2022-12-18T17:52:04.023Z,64.10
2022-12-18T17:54:33.111Z,61.70
2022-12-18T17:57:01.245Z,59.20
2022-12-18T17:59:29.458Z,57.50
2022-12-18T18:01:57.749Z,56.50
2022-12-18T18:04:26.036Z,56.00
2022-12-18T18:06:55.599Z,55.70
2022-12-18T18:09:23.798Z,55.60
2022-12-18T18:12:09.559Z,55.80
2022-12-18T18:14:37.947Z,56.10
2022-12-18T18:17:07.093Z,56.60
2022-12-18T18:19:35.736Z,56.80
2022-12-18T18:22:05.277Z,57.00
2022-12-18T18:24:34.678Z,57.40
2022-12-18T18:27:02.887Z,57.70
2022-12-18T18:29:31.464Z,58.00
2022-12-18T18:32:00.399Z,58.40
2022-12-18T18:34:30.934Z,58.70
2022-12-18T18:37:00.253Z,59.00
2022-12-18T18:39:30.430Z,59.30
2022-12-18T18:41:59.378Z,59.60
2022-12-18T18:44:27.533Z,60.50
2022-12-18T18:46:56.848Z,60.10
2022-12-18T18:49:27.410Z,60.40
2022-12-18T18:51:56.518Z,60.60
2022-12-18T18:54:24.730Z,60.90
2022-12-18T18:59:42.535Z,61.30
2022-12-18T19:02:12.736Z,61.40
2022-12-18T19:04:45.829Z,61.70
2022-12-18T19:07:29.765Z,61.70
2022-12-18T19:10:04.693Z,61.90
2022-12-18T19:12:52.851Z,62.10
2022-12-18T19:15:21.629Z,62.30
2022-12-18T19:17:49.908Z,62.40
2022-12-18T19:20:18.612Z,62.60
2022-12-18T19:22:52.208Z,62.80
2022-12-18T19:25:28.146Z,62.90
2022-12-18T19:28:21.430Z,63.20
2022-12-18T19:30:53.589Z,63.30
2022-12-18T19:33:43.728Z,63.60
2022-12-18T19:36:15.100Z,63.70
2022-12-18T19:38:45.454Z,63.70
2022-12-18T19:41:14.010Z,63.80
2022-12-18T19:43:44.718Z,63.90
2022-12-18T19:46:15.452Z,64.00
2022-12-18T19:48:45.094Z,64.20
2022-12-18T19:51:17.112Z,64.20
2022-12-18T19:53:45.544Z,64.20
2022-12-18T19:56:15.669Z,64.10
2022-12-18T19:58:45.634Z,64.00
2022-12-18T20:01:16.545Z,64.00
2022-12-18T20:03:51.881Z,64.20
2022-12-18T20:06:25.344Z,64.20
2022-12-18T20:08:59.568Z,64.30
2022-12-18T20:11:29.563Z,64.20
2022-12-18T20:13:59.417Z,64.00
2022-12-18T20:16:27.762Z,64.10
2022-12-18T20:18:56.100Z,64.00
2022-12-18T20:21:25.308Z,64.00
2022-12-18T20:23:54.852Z,64.00
2022-12-18T20:26:23.344Z,63.90
2022-12-18T20:28:51.627Z,63.90
2022-12-18T20:31:21.453Z,63.80
2022-12-18T20:33:50.987Z,63.80
2022-12-18T20:36:23.513Z,63.80
2022-12-18T20:38:56.986Z,64.00
2022-12-18T20:41:31.041Z,64.10
2022-12-18T20:44:07.313Z,64.10
2022-12-18T20:46:47.275Z,64.10
2022-12-18T20:49:15.458Z,64.10
2022-12-18T20:51:43.623Z,64.10
2022-12-18T20:54:12.119Z,64.20
2022-12-18T20:56:40.428Z,64.10
2022-12-18T20:59:08.576Z,64.00
2022-12-18T21:01:36.866Z,64.00
2022-12-18T21:04:08.184Z,63.90
2022-12-18T21:06:36.891Z,63.90
2022-12-18T21:09:05.248Z,63.90
2022-12-18T21:11:52.037Z,63.90
2022-12-18T21:14:21.619Z,63.90
2022-12-18T21:16:54.596Z,63.90
2022-12-18T21:19:26.048Z,63.90
2022-12-18T21:21:55.873Z,63.80
2022-12-18T21:24:24.413Z,63.80
2022-12-18T21:26:52.968Z,63.70
2022-12-18T21:29:23.341Z,63.80
2022-12-18T21:31:52.020Z,63.80
2022-12-18T21:34:21.911Z,63.70
2022-12-18T21:36:51.572Z,63.80
2022-12-18T21:39:20.189Z,63.90
2022-12-18T21:42:08.329Z,63.90
2022-12-18T21:44:42.335Z,63.90
2022-12-18T21:47:21.963Z,64.70
2022-12-18T21:49:51.947Z,64.10
2022-12-18T21:52:26.242Z,64.10
2022-12-18T21:55:06.269Z,64.20
2022-12-18T21:57:37.444Z,64.30
2022-12-18T22:00:06.671Z,64.40
2022-12-18T22:02:34.948Z,64.40
2022-12-18T22:05:03.261Z,64.40
2022-12-18T22:07:32.972Z,64.50
2022-12-18T22:10:02.018Z,64.50
2022-12-18T22:12:39.790Z,64.50
2022-12-18T22:15:20.397Z,64.60
2022-12-18T22:17:50.503Z,64.60
2022-12-18T22:20:19.948Z,64.60
2022-12-18T22:22:51.744Z,64.60
2022-12-18T22:25:20.118Z,64.70
2022-12-18T22:28:08.265Z,64.70
2022-12-18T22:30:35.692Z,64.70
2022-12-18T22:33:04.180Z,64.60
2022-12-18T22:35:32.373Z,64.60
2022-12-18T22:38:02.236Z,64.70
2022-12-18T22:40:30.723Z,64.60
2022-12-18T22:42:59.123Z,64.50
2022-12-18T22:45:28.085Z,64.50
2022-12-18T22:47:56.644Z,64.50
2022-12-18T22:50:24.831Z,64.50
2022-12-18T22:52:53.052Z,64.50
2022-12-18T22:55:22.612Z,64.50
2022-12-18T22:57:53.551Z,64.40
2022-12-18T23:00:24.137Z,64.50
2022-12-18T23:02:59.720Z,64.50
2022-12-18T23:05:30.029Z,64.60
2022-12-18T23:07:58.366Z,64.50
2022-12-18T23:10:28.975Z,64.60
2022-12-18T23:12:57.139Z,64.60
2022-12-18T23:15:28.045Z,64.60
2022-12-18T23:17:58.735Z,64.60
2022-12-18T23:20:28.042Z,64.70
2022-12-18T23:22:56.296Z,64.80
2022-12-18T23:25:24.636Z,64.80
2022-12-18T23:27:54.201Z,64.80
2022-12-18T23:30:22.510Z,64.80
2022-12-18T23:32:50.704Z,64.90
2022-12-18T23:35:19.607Z,64.90
2022-12-18T23:38:04.487Z,64.90
2022-12-18T23:40:32.764Z,64.80
2022-12-18T23:43:02.464Z,64.80
2022-12-18T23:45:30.623Z,64.70
2022-12-18T23:47:58.757Z,64.80
2022-12-18T23:50:28.775Z,64.70
2022-12-18T23:53:02.101Z,64.60
2022-12-18T23:55:35.076Z,64.70
2022-12-18T23:58:04.615Z,64.70
